Řízení letového provozu České republiky
Letiste: LKLN Aktualizace: 26.05.2019 23:55:25  UTC
 METAR LKLN 27.05. 00:00 ...
METAR LKLN 270000Z AUTO 00000KT 9999 FEW078 10/09 Q1013=